Time;durP1;ratioP1;P1;durP2;ratioP2;P2;SDS_P1;SDS_P2;PMS_P1;PMS_P2;Temp;Humidity;BMP_temperature;BMP_pressure;BME280_temperature;BME280_humidity;BME280_pressure;Samples;Min_cycle;Max_cycle;Signal;HPM_P1;HPM_P2
2023/05/19 00:01:09;;;;;;;23.63;15.57;;;;;;;8.78;75.66;102537.34;4992329;28;20482;-59
2023/05/19 00:03:39;;;;;;;22.88;16.13;;;;;;;8.65;75.79;102535.75;4992231;28;20027;-59
2023/05/19 00:06:07;;;;;;;23.27;16.00;;;;;;;8.62;76.01;102530.75;4992374;28;20085;-59
2023/05/19 00:08:33;;;;;;;23.48;15.98;;;;;;;8.70;75.77;102543.28;4990962;28;20027;-60
2023/05/19 00:11:00;;;;;;;24.27;15.57;;;;;;;8.70;77.34;102537.75;4992237;28;20481;-59
2023/05/19 00:13:26;;;;;;;23.08;15.88;;;;;;;8.58;77.26;102526.81;4992030;28;20085;-59
2023/05/19 00:15:52;;;;;;;25.33;16.10;;;;;;;8.52;77.96;102539.69;4992145;28;20030;-59
2023/05/19 00:18:17;;;;;;;24.30;15.65;;;;;;;8.50;78.14;102532.75;4992095;28;20394;-59
2023/05/19 00:20:42;;;;;;;23.50;16.48;;;;;;;8.41;78.64;102537.81;4992143;28;20030;-59
2023/05/19 00:23:09;;;;;;;24.48;15.90;;;;;;;8.37;79.30;102531.94;4992110;28;20026;-59
2023/05/19 00:25:34;;;;;;;23.23;15.68;;;;;;;8.37;80.24;102528.38;4990766;28;20386;-60
2023/05/19 00:28:01;;;;;;;25.80;15.85;;;;;;;8.32;81.34;102528.28;4992058;28;20030;-60
2023/05/19 00:30:26;;;;;;;22.35;15.60;;;;;;;8.24;81.71;102524.84;4992178;28;20065;-60
2023/05/19 00:32:52;;;;;;;26.20;16.42;;;;;;;8.18;82.34;102527.75;4991967;28;20054;-60
2023/05/19 00:35:18;;;;;;;22.70;15.40;;;;;;;8.21;82.46;102522.59;4991951;28;20042;-60
2023/05/19 00:37:43;;;;;;;23.45;15.73;;;;;;;8.21;83.04;102519.00;4992016;28;20023;-59
2023/05/19 00:40:09;;;;;;;23.10;16.17;;;;;;;8.11;83.67;102517.72;4991979;28;20026;-59
2023/05/19 00:42:34;;;;;;;25.40;15.52;;;;;;;8.09;84.88;102510.81;4991901;28;20041;-60
2023/05/19 00:45:00;;;;;;;24.98;16.00;;;;;;;7.99;86.55;102521.63;4988985;28;20039;-59
2023/05/19 00:47:25;;;;;;;24.23;15.85;;;;;;;7.90;87.90;102510.16;4991752;28;20165;-60
2023/05/19 00:49:50;;;;;;;22.85;15.73;;;;;;;7.90;87.65;102501.91;4994738;28;20027;-60
2023/05/19 00:52:16;;;;;;;24.17;14.63;;;;;;;7.88;88.42;102513.19;4993995;28;20054;-60
2023/05/19 00:54:44;;;;;;;22.33;15.02;;;;;;;7.86;89.05;102514.50;4995492;28;20497;-59
2023/05/19 00:57:10;;;;;;;23.55;15.10;;;;;;;7.80;89.71;102510.81;4995426;28;20045;-59
2023/05/19 00:59:35;;;;;;;27.00;15.13;;;;;;;7.72;91.34;102511.22;4995737;28;20125;-59
2023/05/19 01:02:01;;;;;;;22.13;14.73;;;;;;;7.62;92.23;102507.19;4995654;28;20027;-60
2023/05/19 01:04:28;;;;;;;23.15;15.68;;;;;;;7.53;93.82;102507.81;4995345;28;20034;-59
2023/05/19 01:06:54;;;;;;;23.27;15.00;;;;;;;7.51;93.90;102515.50;4995040;28;20022;-60
2023/05/19 01:09:23;;;;;;;24.30;15.02;;;;;;;7.50;94.81;102520.16;4994881;28;20023;-60
2023/05/19 01:11:49;;;;;;;25.35;15.18;;;;;;;7.51;94.65;102519.06;4994885;28;20038;-60
2023/05/19 01:14:15;;;;;;;24.30;15.55;;;;;;;7.52;93.84;102520.75;4995103;28;20136;-60
2023/05/19 01:16:49;;;;;;;24.40;15.40;;;;;;;7.51;94.38;102515.50;4994950;28;20026;-60
2023/05/19 01:19:20;;;;;;;22.38;14.85;;;;;;;7.54;94.53;102517.75;4995026;28;20077;-58
2023/05/19 01:22:21;;;;;;;25.80;14.55;;;;;;;7.57;93.98;102512.56;4994836;28;20469;-58
2023/05/19 01:25:09;;;;;;;22.77;14.48;;;;;;;7.53;94.74;102518.81;4995085;28;20450;-59
2023/05/19 01:27:46;;;;;;;22.77;14.50;;;;;;;7.54;94.26;102515.84;4994874;28;20117;-58
2023/05/19 01:30:25;;;;;;;22.75;14.65;;;;;;;7.48;94.99;102514.03;4993383;28;20023;-57
2023/05/19 01:32:59;;;;;;;23.48;14.68;;;;;;;7.49;94.41;102515.72;4993376;28;20041;-58
2023/05/19 01:35:25;;;;;;;23.88;15.40;;;;;;;7.39;95.67;102513.59;4994745;28;20034;-58
2023/05/19 01:37:57;;;;;;;23.60;14.82;;;;;;;7.38;95.60;102513.81;4994801;28;20080;-58
2023/05/19 01:40:24;;;;;;;23.45;15.32;;;;;;;7.38;94.84;102513.81;4994329;28;20038;-58
2023/05/19 01:42:52;;;;;;;24.63;15.13;;;;;;;7.31;96.54;102508.50;4994259;28;20427;-58
2023/05/19 01:45:18;;;;;;;23.50;15.07;;;;;;;7.24;97.28;102511.38;4988178;28;20164;-58
2023/05/19 01:47:47;;;;;;;25.52;15.55;;;;;;;7.18;98.10;102515.06;4993735;28;20410;-58
2023/05/19 01:50:13;;;;;;;26.17;15.23;;;;;;;7.16;97.49;102501.56;4993918;28;20034;-57
2023/05/19 01:52:39;;;;;;;26.40;15.02;;;;;;;7.18;97.60;102504.06;4994044;28;20030;-58
2023/05/19 01:55:05;;;;;;;24.65;15.77;;;;;;;7.11;98.82;102506.97;4994092;28;20033;-58
2023/05/19 01:57:50;;;;;;;24.02;15.38;;;;;;;7.16;97.97;102506.25;4993904;28;20022;-58
2023/05/19 02:00:21;;;;;;;23.17;14.98;;;;;;;7.14;98.05;102502.88;4993169;28;20037;-58
2023/05/19 02:03:08;;;;;;;22.52;15.07;;;;;;;7.14;97.48;102505.63;4994050;28;20031;-60
2023/05/19 02:05:39;;;;;;;25.40;15.60;;;;;;;7.09;98.15;102498.09;4993739;28;20022;-59
2023/05/19 02:08:15;;;;;;;23.38;15.60;;;;;;;7.07;98.17;102500.25;4993847;28;20030;-60
2023/05/19 02:10:48;;;;;;;25.20;16.10;;;;;;;7.08;98.29;102495.59;4993782;28;20030;-59
2023/05/19 02:13:19;;;;;;;26.73;15.70;;;;;;;7.03;99.08;102494.41;4993870;28;20438;-59
2023/05/19 02:15:44;;;;;;;21.92;15.15;;;;;;;7.03;99.25;102499.09;4993751;28;20030;-59
2023/05/19 02:18:10;;;;;;;24.15;15.40;;;;;;;7.03;98.67;102502.66;4993678;28;20145;-59
2023/05/19 02:20:37;;;;;;;23.95;15.40;;;;;;;7.00;99.28;102494.88;4993131;28;20398;-60
2023/05/19 02:23:03;;;;;;;24.55;15.55;;;;;;;6.99;99.28;102503.38;4992238;28;20033;-59
2023/05/19 02:25:28;;;;;;;23.58;14.80;;;;;;;6.97;99.97;102492.63;4993694;28;20026;-59
2023/05/19 02:27:54;;;;;;;25.70;14.85;;;;;;;6.98;100.00;102497.06;4993509;28;20033;-58
2023/05/19 02:30:19;;;;;;;24.08;14.88;;;;;;;6.97;99.67;102491.78;4993232;28;20033;-59
2023/05/19 02:32:45;;;;;;;23.23;14.77;;;;;;;6.98;100.00;102487.94;4993267;28;20031;-59
2023/05/19 02:35:11;;;;;;;24.13;16.15;;;;;;;6.98;100.00;102494.31;4992583;28;20057;-61
2023/05/19 02:37:36;;;;;;;23.40;15.30;;;;;;;6.96;100.00;102488.19;4993451;28;20058;-59
2023/05/19 02:40:03;;;;;;;25.70;14.73;;;;;;;6.96;100.00;102481.84;4993312;28;20030;-58
2023/05/19 02:42:28;;;;;;;25.75;14.80;;;;;;;6.95;100.00;102475.53;4987622;28;20454;-59
2023/05/19 02:44:54;;;;;;;24.52;15.55;;;;;;;6.92;100.00;102478.75;4993108;28;20069;-59
2023/05/19 02:47:19;;;;;;;24.92;15.65;;;;;;;6.91;100.00;102482.56;4992885;28;20057;-58
2023/05/19 02:49:44;;;;;;;23.40;15.13;;;;;;;6.88;100.00;102480.31;4992914;28;20029;-59
2023/05/19 02:52:10;;;;;;;23.88;15.48;;;;;;;6.84;100.00;102471.72;4991563;28;20093;-59
2023/05/19 02:54:36;;;;;;;23.20;15.43;;;;;;;6.84;100.00;102479.97;4993467;28;20042;-59
2023/05/19 02:57:01;;;;;;;24.67;15.32;;;;;;;6.81;100.00;102479.59;4992971;28;20073;-59
2023/05/19 02:59:27;;;;;;;25.17;15.50;;;;;;;6.77;100.00;102472.91;4993037;28;20069;-59
2023/05/19 03:02:00;;;;;;;25.67;15.77;;;;;;;6.75;100.00;102473.16;4992911;28;20030;-59
2023/05/19 03:04:25;;;;;;;24.23;15.48;;;;;;;6.73;100.00;102472.56;4992944;28;20126;-58
2023/05/19 03:06:50;;;;;;;24.58;15.50;;;;;;;6.71;100.00;102466.44;4991469;28;20029;-59
2023/05/19 03:09:16;;;;;;;25.85;16.02;;;;;;;6.67;100.00;102471.59;4992906;28;20027;-59
2023/05/19 03:11:41;;;;;;;23.70;14.88;;;;;;;6.66;100.00;102464.41;4991970;28;20478;-59
2023/05/19 03:14:09;;;;;;;24.95;15.75;;;;;;;6.66;100.00;102463.59;4992527;28;20109;-59
2023/05/19 03:16:34;;;;;;;23.83;15.55;;;;;;;6.64;100.00;102474.81;4992824;28;20022;-58
2023/05/19 03:19:00;;;;;;;26.08;16.27;;;;;;;6.61;100.00;102472.56;4992669;28;20030;-58
2023/05/19 03:21:25;;;;;;;23.70;14.82;;;;;;;6.59;100.00;102469.22;4992753;28;20038;-57
2023/05/19 03:23:51;;;;;;;23.95;15.18;;;;;;;6.58;100.00;102466.69;4992693;28;20122;-58
2023/05/19 03:26:16;;;;;;;26.90;16.13;;;;;;;6.54;100.00;102469.94;4992632;28;20029;-58
2023/05/19 03:28:41;;;;;;;24.70;16.00;;;;;;;6.55;100.00;102476.25;4991308;28;20026;-58
2023/05/19 03:31:07;;;;;;;24.20;15.82;;;;;;;6.53;100.00;102472.91;4992538;28;20030;-58
2023/05/19 03:33:32;;;;;;;23.13;14.65;;;;;;;6.55;100.00;102476.25;4992451;28;20022;-58
2023/05/19 03:35:57;;;;;;;27.10;15.27;;;;;;;6.55;100.00;102476.25;4992449;28;20023;-58
2023/05/19 03:38:23;;;;;;;23.75;15.25;;;;;;;6.53;100.00;102482.00;4992224;28;20042;-58
2023/05/19 03:40:48;;;;;;;26.67;16.88;;;;;;;6.53;100.00;102484.75;4992060;28;20022;-58
2023/05/19 03:43:15;;;;;;;24.00;15.38;;;;;;;6.56;100.00;102480.69;4990902;28;20035;-58
2023/05/19 03:45:40;;;;;;;27.33;15.57;;;;;;;6.52;100.00;102485.81;4990820;28;20023;-58
2023/05/19 03:48:06;;;;;;;24.15;16.10;;;;;;;6.52;100.00;102488.56;4990316;28;20108;-57
2023/05/19 03:50:32;;;;;;;24.08;15.48;;;;;;;6.52;100.00;102482.22;4992208;28;20038;-58
2023/05/19 03:52:58;;;;;;;24.20;15.38;;;;;;;6.53;100.00;102489.41;4991023;28;20076;-58
2023/05/19 03:55:24;;;;;;;24.60;15.35;;;;;;;6.55;100.00;102487.25;4991845;28;20066;-58
2023/05/19 03:57:51;;;;;;;26.60;15.90;;;;;;;6.56;100.00;102491.69;4992346;28;20037;-58
2023/05/19 04:00:17;;;;;;;24.23;15.10;;;;;;;6.58;100.00;102500.53;4992129;28;20073;-58
2023/05/19 04:02:42;;;;;;;24.27;15.70;;;;;;;6.59;100.00;102498.59;4992015;28;20108;-58
2023/05/19 04:05:09;;;;;;;26.88;16.38;;;;;;;6.59;100.00;102496.72;4992065;28;20526;-58
2023/05/19 04:07:34;;;;;;;23.67;15.68;;;;;;;6.61;100.00;102496.47;4992289;28;20041;-58
2023/05/19 04:10:01;;;;;;;23.58;15.73;;;;;;;6.62;100.00;102492.63;4992211;28;20019;-58
2023/05/19 04:12:26;;;;;;;25.48;15.93;;;;;;;6.61;100.00;102491.81;4991971;28;20058;-58
2023/05/19 04:14:52;;;;;;;24.65;15.60;;;;;;;6.61;100.00;102494.56;4992170;28;20104;-58
2023/05/19 04:17:17;;;;;;;24.30;15.75;;;;;;;6.63;100.00;102495.13;4991908;28;20093;-58
2023/05/19 04:19:42;;;;;;;24.65;15.35;;;;;;;6.65;100.00;102486.66;4992054;28;20030;-58
2023/05/19 04:22:08;;;;;;;26.15;16.35;;;;;;;6.67;100.00;102492.75;4992224;28;20030;-58
2023/05/19 04:24:33;;;;;;;25.15;16.25;;;;;;;6.69;100.00;102494.19;4994636;28;20030;-58
2023/05/19 04:27:03;;;;;;;24.65;16.05;;;;;;;6.70;100.00;102492.28;4995872;28;20151;-58
2023/05/19 04:29:28;;;;;;;26.65;16.00;;;;;;;6.74;100.00;102498.13;4995916;28;20088;-58
2023/05/19 04:31:54;;;;;;;25.45;16.50;;;;;;;6.74;100.00;102495.38;4995706;28;20430;-59
2023/05/19 04:34:20;;;;;;;25.77;16.20;;;;;;;6.76;100.00;102487.72;4995737;28;20030;-58
2023/05/19 04:36:45;;;;;;;26.45;16.38;;;;;;;6.81;100.00;102490.59;4995496;28;20034;-58
2023/05/19 04:39:11;;;;;;;26.30;16.50;;;;;;;6.83;100.00;102485.69;4995680;28;20219;-58
2023/05/19 04:41:39;;;;;;;24.23;16.58;;;;;;;6.84;100.00;102495.63;4995614;28;20095;-57
2023/05/19 04:44:06;;;;;;;25.33;16.55;;;;;;;6.85;100.00;102489.03;4992197;28;20072;-57
2023/05/19 04:46:31;;;;;;;26.77;16.67;;;;;;;6.89;100.00;102497.66;4994797;28;20058;-58
2023/05/19 04:48:56;;;;;;;28.23;16.98;;;;;;;6.93;100.00;102493.34;4995328;28;20157;-59
2023/05/19 04:51:26;;;;;;;25.50;16.35;;;;;;;7.00;100.00;102494.88;4995043;28;20173;-58
2023/05/19 04:53:53;;;;;;;24.58;16.58;;;;;;;7.06;100.00;102495.00;4995420;28;20109;-58
2023/05/19 04:56:19;;;;;;;26.42;16.83;;;;;;;7.11;100.00;102486.84;4995381;28;20030;-59
2023/05/19 04:58:44;;;;;;;26.33;16.75;;;;;;;7.17;100.00;102489.47;4995287;28;20593;-60
2023/05/19 05:01:12;;;;;;;26.08;16.58;;;;;;;7.27;100.00;102494.38;4995320;28;20035;-60
2023/05/19 05:03:37;;;;;;;27.77;17.20;;;;;;;7.30;100.00;102493.03;4995277;28;20081;-60
2023/05/19 05:06:03;;;;;;;25.25;16.60;;;;;;;7.37;100.00;102495.66;4995054;28;20030;-60
2023/05/19 05:08:29;;;;;;;25.20;17.08;;;;;;;7.44;100.00;102499.94;4994987;28;20084;-61
2023/05/19 05:10:54;;;;;;;25.58;16.45;;;;;;;7.52;100.00;102495.97;4994678;28;20023;-60
2023/05/19 05:13:21;;;;;;;26.88;16.73;;;;;;;7.58;100.00;102494.97;4994817;28;20041;-59
2023/05/19 05:15:47;;;;;;;24.00;16.33;;;;;;;7.65;100.00;102495.66;4994884;28;20034;-58
2023/05/19 05:18:13;;;;;;;27.33;17.10;;;;;;;7.71;100.00;102501.28;4994805;28;20097;-58
2023/05/19 05:20:41;;;;;;;25.85;16.25;;;;;;;7.77;100.00;102501.13;4994702;28;20089;-58
2023/05/19 05:23:08;;;;;;;27.08;17.15;;;;;;;7.83;100.00;102498.47;4994738;28;20061;-59
2023/05/19 05:25:34;;;;;;;26.23;17.00;;;;;;;7.90;100.00;102501.91;4995163;28;20034;-59
2023/05/19 05:28:03;;;;;;;26.92;18.63;;;;;;;7.95;100.00;102500.06;4994331;28;20026;-58
2023/05/19 05:30:29;;;;;;;26.23;17.05;;;;;;;8.04;100.00;102500.53;4994689;28;20090;-58
2023/05/19 05:32:55;;;;;;;25.52;16.80;;;;;;;8.15;100.00;102501.53;4994366;28;20031;-58
2023/05/19 05:35:22;;;;;;;24.88;16.25;;;;;;;8.23;100.00;102506.63;4993392;28;20034;-58
2023/05/19 05:37:48;;;;;;;24.65;16.05;;;;;;;8.32;100.00;102500.69;4994465;28;20058;-58
2023/05/19 05:40:13;;;;;;;26.52;16.05;;;;;;;8.43;100.00;102510.81;4987034;28;20178;-58
2023/05/19 05:42:39;;;;;;;25.30;16.05;;;;;;;8.49;99.70;102509.00;4994161;28;20092;-58
2023/05/19 05:45:05;;;;;;;26.83;16.08;;;;;;;8.53;98.78;102502.75;4993746;28;20019;-59
2023/05/19 05:47:30;;;;;;;23.63;15.55;;;;;;;8.63;98.50;102504.84;4983111;28;20050;-58
2023/05/19 05:49:56;;;;;;;24.38;15.48;;;;;;;8.76;97.89;102498.13;4984968;28;20018;-58
2023/05/19 05:52:24;;;;;;;24.08;15.55;;;;;;;8.92;97.27;102499.19;4983335;28;20039;-58
2023/05/19 05:54:50;;;;;;;23.35;15.35;;;;;;;9.06;95.27;102502.44;4992690;28;20058;-59
2023/05/19 05:57:15;;;;;;;26.73;15.63;;;;;;;9.11;94.70;102502.47;4974509;28;20031;-60
2023/05/19 05:59:41;;;;;;;26.08;16.00;;;;;;;9.18;94.61;102505.06;4974465;28;20438;-60
2023/05/19 06:02:07;;;;;;;24.20;15.65;;;;;;;9.25;93.96;102504.88;4974303;28;20030;-60
2023/05/19 06:04:32;;;;;;;25.52;15.60;;;;;;;9.33;93.21;102496.97;4974604;28;20109;-60
2023/05/19 06:07:00;;;;;;;25.38;15.88;;;;;;;9.42;92.30;102504.78;4974471;28;20483;-60
2023/05/19 06:09:25;;;;;;;23.05;15.77;;;;;;;9.56;92.08;102500.56;4974459;28;20031;-59
2023/05/19 06:11:51;;;;;;;24.77;15.45;;;;;;;9.64;91.44;102500.09;4972665;28;20033;-59
2023/05/19 06:14:17;;;;;;;25.17;15.68;;;;;;;9.74;90.67;102510.41;4974233;28;20062;-59
2023/05/19 06:16:42;;;;;;;24.80;15.90;;;;;;;9.91;90.17;102502.03;4974648;28;20039;-59
2023/05/19 06:19:08;;;;;;;22.90;15.07;;;;;;;10.04;88.88;102509.06;4972753;28;20034;-58
2023/05/19 06:21:33;;;;;;;25.35;15.13;;;;;;;10.15;88.45;102513.59;4973948;28;20037;-59
2023/05/19 06:23:59;;;;;;;24.90;15.52;;;;;;;10.25;87.94;102517.56;4973991;28;20027;-60
2023/05/19 06:26:25;;;;;;;22.80;14.73;;;;;;;10.38;87.22;102506.09;4973971;28;20105;-60
2023/05/19 06:28:51;;;;;;;22.92;15.07;;;;;;;10.50;86.57;102503.13;4972675;28;20513;-59
2023/05/19 06:31:16;;;;;;;22.90;14.70;;;;;;;10.56;86.10;102509.53;4973548;28;20066;-59
2023/05/19 06:33:41;;;;;;;23.27;14.77;;;;;;;10.62;84.88;102511.25;4972126;28;20384;-60
2023/05/19 06:36:08;;;;;;;22.77;14.60;;;;;;;10.75;85.39;102512.72;4970296;28;20486;-55
2023/05/19 06:38:34;;;;;;;21.45;14.52;;;;;;;10.82;83.46;102515.25;4967227;28;20034;-59
2023/05/19 06:40:59;;;;;;;21.58;14.10;;;;;;;10.94;84.33;102513.13;4971811;28;20043;-58
2023/05/19 06:43:24;;;;;;;23.08;14.23;;;;;;;11.01;81.62;102515.63;4971920;28;20054;-59
2023/05/19 06:45:50;;;;;;;23.02;14.98;;;;;;;10.99;81.62;102517.84;4971657;28;20038;-59
2023/05/19 06:48:15;;;;;;;23.35;14.55;;;;;;;11.06;82.22;102512.91;4971188;28;20058;-59
2023/05/19 06:50:40;;;;;;;21.20;14.52;;;;;;;11.21;82.15;102509.38;4971646;28;20027;-59
2023/05/19 06:53:06;;;;;;;24.55;14.70;;;;;;;11.32;81.38;102508.34;4971575;28;20394;-58
2023/05/19 06:55:31;;;;;;;23.70;14.48;;;;;;;11.45;80.46;102512.53;4971517;28;20141;-59
2023/05/19 06:57:56;;;;;;;22.77;14.75;;;;;;;11.51;79.96;102507.84;4986244;28;20062;-59
2023/05/19 07:00:22;;;;;;;23.42;14.13;;;;;;;11.68;80.53;102508.47;4986154;28;20038;-59
2023/05/19 07:02:47;;;;;;;21.63;13.75;;;;;;;11.81;78.12;102511.78;4971493;28;20038;-59
2023/05/19 07:05:12;;;;;;;23.40;14.40;;;;;;;11.91;77.46;102505.44;4971578;28;20569;-58
2023/05/19 07:07:37;;;;;;;22.23;13.73;;;;;;;12.00;77.05;102512.97;4971663;28;20038;-58
2023/05/19 07:10:03;;;;;;;21.98;14.07;;;;;;;12.07;75.61;102507.16;4970225;28;20467;-59
2023/05/19 07:12:28;;;;;;;21.83;13.57;;;;;;;12.18;75.56;102508.03;4971560;28;20093;-58
2023/05/19 07:14:54;;;;;;;23.50;14.43;;;;;;;12.27;74.80;102511.91;4972157;28;20501;-59
2023/05/19 07:17:19;;;;;;;23.45;13.38;;;;;;;12.32;74.15;102511.91;4972126;28;20028;-59
2023/05/19 07:19:44;;;;;;;21.23;13.70;;;;;;;12.40;73.93;102502.19;4972226;28;20031;-59
2023/05/19 07:22:10;;;;;;;21.02;13.00;;;;;;;12.42;72.30;102502.72;4986735;28;20390;-58
2023/05/19 07:24:35;;;;;;;23.58;13.13;;;;;;;12.36;71.15;102516.91;4972133;28;20030;-59
2023/05/19 07:27:00;;;;;;;21.27;12.30;;;;;;;12.36;71.11;102511.34;4972049;28;20423;-59
2023/05/19 07:29:26;;;;;;;24.83;12.80;;;;;;;12.38;70.44;102520.22;4972185;28;20118;-59
2023/05/19 07:31:53;;;;;;;21.55;12.73;;;;;;;12.48;71.63;102507.19;4971874;28;20552;-57
2023/05/19 07:34:19;;;;;;;23.42;13.02;;;;;;;12.66;71.60;102512.44;4964438;28;20114;-59
2023/05/19 07:36:45;;;;;;;21.35;13.00;;;;;;;12.82;70.56;102507.69;4971366;28;20062;-59
2023/05/19 07:39:10;;;;;;;22.50;13.48;;;;;;;12.97;70.50;102502.13;4971049;28;20081;-58
2023/05/19 07:41:36;;;;;;;25.88;16.15;;;;;;;13.15;71.63;102510.94;4970119;28;20578;-56
2023/05/19 07:44:06;;;;;;;20.27;12.35;;;;;;;13.17;68.00;102501.22;4963381;28;20037;-57
2023/05/19 07:46:31;;;;;;;20.33;12.48;;;;;;;13.25;67.58;102497.84;4970943;28;20031;-59
2023/05/19 07:48:56;;;;;;;21.40;12.38;;;;;;;13.36;67.43;102498.66;4971018;28;20023;-59
2023/05/19 07:51:22;;;;;;;22.05;12.95;;;;;;;13.53;67.58;102494.69;4971164;28;20141;-59
2023/05/19 07:53:47;;;;;;;25.20;12.43;;;;;;;13.69;67.87;102501.00;4970398;28;20046;-58
2023/05/19 07:56:12;;;;;;;22.55;13.35;;;;;;;13.70;65.47;102497.09;4969370;28;20394;-59
2023/05/19 07:58:38;;;;;;;22.20;12.85;;;;;;;13.73;65.97;102497.38;4970567;28;20033;-58
2023/05/19 08:01:04;;;;;;;21.63;12.77;;;;;;;13.81;65.20;102495.09;4973771;28;20593;-58
2023/05/19 08:03:29;;;;;;;21.23;11.95;;;;;;;13.91;63.96;102496.97;4973644;28;20042;-58
2023/05/19 08:05:55;;;;;;;22.92;12.45;;;;;;;14.02;64.63;102490.22;4973880;28;20034;-57
2023/05/19 08:08:20;;;;;;;21.38;12.70;;;;;;;14.07;64.15;102490.19;4973752;28;20482;-58
2023/05/19 08:10:46;;;;;;;24.92;12.50;;;;;;;14.14;63.60;102484.28;4973240;28;20259;-59
2023/05/19 08:13:11;;;;;;;20.80;11.55;;;;;;;14.25;62.77;102485.84;4976218;28;20088;-59
2023/05/19 08:15:36;;;;;;;20.13;11.45;;;;;;;14.27;62.19;102486.41;4977378;28;20473;-59
2023/05/19 08:18:03;;;;;;;21.85;11.93;;;;;;;14.35;63.00;102480.19;4977419;28;20042;-59
2023/05/19 08:20:29;;;;;;;20.58;11.90;;;;;;;14.38;61.88;102478.78;4977102;28;20030;-59
2023/05/19 08:22:54;;;;;;;20.58;12.15;;;;;;;14.43;61.07;102484.31;4977026;28;20216;-59
2023/05/19 08:25:20;;;;;;;21.48;12.38;;;;;;;14.41;60.52;102481.00;4977023;28;20031;-58
2023/05/19 08:27:45;;;;;;;21.63;12.30;;;;;;;14.51;61.75;102474.47;4976907;28;20030;-59
2023/05/19 08:30:11;;;;;;;20.48;12.10;;;;;;;14.72;62.25;102464.00;4977207;28;20030;-59
2023/05/19 08:32:36;;;;;;;19.40;11.25;;;;;;;14.92;60.51;102460.16;4976932;28;20023;-60
2023/05/19 08:35:02;;;;;;;20.90;11.45;;;;;;;15.02;57.83;102464.78;4977058;28;20022;-58
2023/05/19 08:37:27;;;;;;;19.88;11.35;;;;;;;15.21;58.76;102462.03;4977375;28;20030;-58
2023/05/19 08:39:53;;;;;;;21.33;11.70;;;;;;;15.47;58.25;102460.88;4976787;28;20092;-60
2023/05/19 08:42:18;;;;;;;21.33;11.30;;;;;;;15.77;57.18;102451.22;4976867;28;20039;-58
2023/05/19 08:44:43;;;;;;;21.75;11.70;;;;;;;15.92;56.93;102449.38;4976868;28;20129;-59
2023/05/19 08:47:12;;;;;;;20.42;11.52;;;;;;;16.24;56.68;102456.94;4976706;28;20046;-59
2023/05/19 08:49:44;;;;;;;20.05;11.13;;;;;;;16.38;54.54;102449.41;4977163;28;20092;-60
2023/05/19 08:52:41;;;;;;;20.80;11.32;;;;;;;16.40;53.70;102451.06;4976843;28;20023;-60
2023/05/19 08:55:11;;;;;;;18.05;10.20;;;;;;;16.49;52.41;102438.84;4977148;28;20049;-60
2023/05/19 08:57:37;;;;;;;19.83;10.32;;;;;;;16.72;52.48;102436.22;4976910;28;20056;-60
2023/05/19 09:00:12;;;;;;;19.92;10.63;;;;;;;16.90;51.29;102437.25;4976853;28;20371;-58
2023/05/19 09:02:38;;;;;;;20.10;10.20;;;;;;;16.95;48.04;102437.16;4976819;28;20054;-60
2023/05/19 09:05:05;;;;;;;19.00;10.10;;;;;;;17.12;48.20;102433.75;4976901;28;20054;-59
2023/05/19 09:07:33;;;;;;;18.90;9.70;;;;;;;17.21;47.03;102433.81;4976779;28;20078;-59
2023/05/19 09:10:00;;;;;;;18.40;9.60;;;;;;;17.19;45.54;102424.94;4973650;28;20047;-59
2023/05/19 09:12:25;;;;;;;20.70;9.82;;;;;;;17.23;46.17;102419.56;4973611;28;20038;-59
2023/05/19 09:14:51;;;;;;;17.83;9.60;;;;;;;17.31;45.69;102428.00;4973635;28;20034;-58
2023/05/19 09:17:17;;;;;;;19.65;9.70;;;;;;;17.46;46.04;102421.25;4973955;28;20031;-59
2023/05/19 09:19:46;;;;;;;15.48;8.93;;;;;;;17.55;44.49;102421.34;4973532;28;20034;-59
2023/05/19 09:22:14;;;;;;;18.13;9.30;;;;;;;17.66;45.22;102407.09;4973579;28;20098;-58
2023/05/19 09:24:40;;;;;;;18.65;9.60;;;;;;;17.80;45.10;102418.25;4973524;28;20486;-59
2023/05/19 09:27:05;;;;;;;17.15;9.00;;;;;;;17.80;42.14;102412.66;4973483;28;20026;-60
2023/05/19 09:29:31;;;;;;;15.55;9.20;;;;;;;17.73;43.27;102419.50;4973397;28;20483;-59
2023/05/19 09:32:00;;;;;;;19.70;9.68;;;;;;;17.65;43.26;102402.66;4973033;28;20495;-60
2023/05/19 09:34:26;;;;;;;17.80;9.40;;;;;;;17.65;44.96;102405.44;4973290;28;20030;-59
2023/05/19 09:36:52;;;;;;;20.02;10.02;;;;;;;17.51;45.07;102399.91;4973523;28;20038;-59
2023/05/19 09:39:19;;;;;;;20.58;10.10;;;;;;;17.37;46.97;102408.34;4973526;28;20039;-59
2023/05/19 09:41:46;;;;;;;19.55;9.60;;;;;;;17.38;46.36;102396.00;4973570;28;20027;-59
2023/05/19 09:44:33;;;;;;;18.85;9.40;;;;;;;17.53;45.40;102404.03;4973047;28;20097;-59
2023/05/19 09:46:59;;;;;;;18.48;9.48;;;;;;;17.55;43.03;102396.16;4973095;28;20051;-59
2023/05/19 09:49:28;;;;;;;20.48;9.48;;;;;;;17.50;43.28;102401.03;4973234;28;20453;-59
2023/05/19 09:51:57;;;;;;;16.85;9.15;;;;;;;17.58;43.86;102406.69;4987870;28;20047;-59
2023/05/19 09:54:23;;;;;;;19.15;9.15;;;;;;;17.69;42.85;102409.25;4973052;28;20038;-59
2023/05/19 09:56:58;;;;;;;15.75;8.82;;;;;;;17.81;42.75;102408.66;4972896;28;20122;-60
2023/05/19 09:59:25;;;;;;;17.98;9.40;;;;;;;17.69;42.44;102418.50;4973138;28;20027;-58
2023/05/19 10:01:58;;;;;;;18.27;9.63;;;;;;;17.57;44.56;102401.41;4972806;28;20034;-59
2023/05/19 10:04:26;;;;;;;19.20;9.57;;;;;;;17.57;44.07;102402.22;4971939;28;20490;-59
2023/05/19 10:07:00;;;;;;;17.50;9.52;;;;;;;17.67;44.16;102409.56;4972658;28;20037;-59
2023/05/19 10:09:26;;;;;;;;;;;;;;;17.75;46.70;102406.00;4971494;28;20045;-59
2023/05/19 10:11:56;;;;;;;17.40;9.27;;;;;;;17.72;43.38;102401.03;4972616;28;19914;-59
2023/05/19 10:14:23;;;;;;;17.70;9.45;;;;;;;17.69;43.27;102409.25;4972767;28;20085;-59
2023/05/19 10:16:51;;;;;;;17.65;9.77;;;;;;;17.48;43.67;102403.31;4971029;28;20034;-60
2023/05/19 10:19:20;;;;;;;17.73;9.45;;;;;;;17.41;45.24;102393.41;4972965;28;20459;-59
2023/05/19 10:21:45;;;;;;;18.98;9.95;;;;;;;17.33;45.06;102402.53;4971978;28;20380;-59
2023/05/19 10:24:10;;;;;;;19.00;9.93;;;;;;;17.52;45.71;102407.97;4972481;28;20033;-59
2023/05/19 10:26:38;;;;;;;18.58;10.20;;;;;;;17.52;45.22;102396.78;4972502;28;20033;-59
2023/05/19 10:29:03;;;;;;;20.48;9.90;;;;;;;17.74;45.30;102386.75;4972557;28;20363;-58
2023/05/19 10:31:32;;;;;;;19.50;9.90;;;;;;;18.04;44.93;102382.38;4972379;28;20034;-58
2023/05/19 10:34:26;;;;;;;20.00;9.80;;;;;;;18.16;44.82;102387.38;4972546;28;20089;-58
2023/05/19 10:37:11;;;;;;;20.40;9.82;;;;;;;18.31;43.26;102385.31;4972242;28;20030;-59
2023/05/19 10:39:41;;;;;;;17.55;9.80;;;;;;;18.44;42.43;102375.16;4972203;28;20030;-59
2023/05/19 10:42:18;;;;;;;18.38;9.95;;;;;;;18.54;42.91;102378.50;4972416;28;20039;-59
2023/05/19 10:45:01;;;;;;;18.15;10.07;;;;;;;18.25;42.49;102370.63;4971996;28;20556;-59
2023/05/19 10:47:26;;;;;;;19.93;10.20;;;;;;;18.16;42.55;102369.75;4971647;28;20066;-58
2023/05/19 10:49:55;;;;;;;18.02;9.45;;;;;;;18.32;42.41;102372.97;4971823;28;20287;-59
2023/05/19 10:52:24;;;;;;;16.67;9.85;;;;;;;18.52;41.12;102366.78;4971754;28;20038;-58
2023/05/19 10:54:50;;;;;;;17.02;9.60;;;;;;;18.56;39.83;102366.97;4971784;28;20030;-59
2023/05/19 10:57:16;;;;;;;21.75;10.43;;;;;;;18.55;39.87;102376.53;4971671;28;20049;-59
2023/05/19 10:59:45;;;;;;;20.08;9.55;;;;;;;18.61;40.77;102369.63;4971673;28;20049;-59
2023/05/19 11:02:37;;;;;;;17.88;9.68;;;;;;;18.53;41.23;102371.22;4971224;28;20545;-60
2023/05/19 11:05:15;;;;;;;18.13;9.75;;;;;;;18.47;41.45;102368.88;4971516;28;20038;-59
2023/05/19 11:07:44;;;;;;;18.00;9.40;;;;;;;18.56;40.23;102366.97;4980841;28;20053;-59
2023/05/19 11:10:10;;;;;;;17.63;9.00;;;;;;;18.82;40.67;102364.22;4992856;28;20487;-59
2023/05/19 11:12:41;;;;;;;19.58;9.95;;;;;;;18.92;40.67;102368.72;4992581;28;20105;-59